Time;durP1;ratioP1;P1;durP2;ratioP2;P2;SDS_P1;SDS_P2;PMS_P1;PMS_P2;Temp;Humidity;BMP_temperature;BMP_pressure;BME280_temperature;BME280_humidity;BME280_pressure;Samples;Min_cycle;Max_cycle;Signal;HPM_P1;HPM_P2
2023/03/05 00:01:42;;;;;;;79.50;31.83;;;4.80;99.30;;;;;;5028431;28;20410;-72
2023/03/05 00:04:13;;;;;;;84.40;33.47;;;4.70;99.60;;;;;;5028511;28;20065;-70
2023/03/05 00:06:38;;;;;;;84.60;32.83;;;4.70;99.60;;;;;;5028768;28;20471;-70
2023/03/05 00:09:04;;;;;;;79.30;33.57;;;4.70;99.70;;;;;;5027268;28;20071;-72
2023/03/05 00:11:32;;;;;;;81.22;32.17;;;4.70;99.90;;;;;;5027130;28;20819;-65
2023/03/05 00:13:59;;;;;;;80.50;34.47;;;4.70;99.90;;;;;;5028317;28;20135;-72
2023/03/05 00:16:26;;;;;;;93.55;35.92;;;4.60;99.90;;;;;;5028127;28;20053;-72
2023/03/05 00:18:54;;;;;;;92.10;35.80;;;4.60;99.90;;;;;;5026982;28;20037;-70
2023/03/05 00:21:24;;;;;;;89.53;36.63;;;4.50;99.90;;;;;;5027907;28;20385;-72
2023/03/05 00:23:50;;;;;;;97.28;37.03;;;4.50;99.90;;;;;;5027936;28;20083;-73
2023/03/05 00:26:21;;;;;;;96.40;36.65;;;4.60;99.90;;;;;;5026629;28;20041;-71
2023/03/05 00:28:49;;;;;;;93.22;35.80;;;4.50;99.90;;;;;;5026607;28;20032;-72
2023/03/05 00:31:16;;;;;;;88.30;34.50;;;4.40;99.90;;;;;;5025343;28;20455;-72
2023/03/05 00:33:42;;;;;;;104.38;38.38;;;4.40;99.90;;;;;;5027293;28;20033;-73
2023/03/05 00:36:08;;;;;;;95.88;37.15;;;4.40;99.90;;;;;;5027862;28;20107;-72
2023/03/05 00:38:34;;;;;;;97.57;37.10;;;4.30;99.90;;;;;;5027246;28;20041;-73
2023/03/05 00:41:00;;;;;;;103.30;38.65;;;4.30;99.90;;;;;;5027534;28;20353;-68
2023/03/05 00:43:27;;;;;;;103.15;41.38;;;4.30;99.90;;;;;;5027489;28;20033;-72
2023/03/05 00:45:53;;;;;;;104.18;39.10;;;4.20;99.90;;;;;;5026123;28;20124;-72
2023/03/05 00:48:18;;;;;;;107.32;41.40;;;4.20;99.90;;;;;;5027413;28;20144;-71
2023/03/05 00:50:44;;;;;;;107.23;39.30;;;4.30;99.90;;;;;;5027489;28;20473;-71
2023/03/05 00:53:10;;;;;;;92.90;36.85;;;4.30;99.90;;;;;;5027305;28;20514;-71
2023/03/05 00:55:36;;;;;;;103.83;37.23;;;4.10;99.90;;;;;;5027149;28;20068;-72
2023/03/05 00:58:02;;;;;;;109.43;40.73;;;4.10;99.90;;;;;;5028358;28;20106;-72
2023/03/05 01:00:27;;;;;;;111.65;42.35;;;4.10;99.90;;;;;;5027948;28;20069;-71
2023/03/05 01:02:53;;;;;;;107.73;42.07;;;4.10;99.90;;;;;;5027786;28;20049;-71
2023/03/05 01:05:19;;;;;;;104.23;38.90;;;4.00;99.90;;;;;;5027873;28;20636;-72
2023/03/05 01:07:44;;;;;;;106.27;41.30;;;3.90;99.90;;;;;;5027542;28;20038;-67
2023/03/05 01:10:11;;;;;;;111.00;41.47;;;4.00;99.90;;;;;;5027668;28;20018;-71
2023/03/05 01:12:37;;;;;;;106.97;41.00;;;3.90;99.90;;;;;;5027863;28;20029;-72
2023/03/05 01:15:04;;;;;;;99.15;39.22;;;3.90;99.90;;;;;;5027418;28;20033;-72
2023/03/05 01:17:30;;;;;;;101.10;41.22;;;3.90;99.90;;;;;;5026164;28;20030;-72
2023/03/05 01:19:55;;;;;;;112.70;40.53;;;3.90;99.90;;;;;;5027342;28;20908;-71
2023/03/05 01:22:21;;;;;;;98.23;38.63;;;3.90;99.90;;;;;;5027170;28;20033;-70
2023/03/05 01:24:46;;;;;;;104.97;38.80;;;3.80;99.90;;;;;;5027436;28;20030;-71
2023/03/05 01:27:12;;;;;;;95.60;38.80;;;3.80;99.90;;;;;;5027071;28;20332;-69
2023/03/05 01:29:38;;;;;;;106.07;39.43;;;3.80;99.90;;;;;;5027551;28;20034;-72
2023/03/05 01:32:03;;;;;;;106.23;39.83;;;3.80;99.90;;;;;;5027256;28;20038;-72
2023/03/05 01:34:29;;;;;;;101.15;38.88;;;3.80;99.90;;;;;;5029080;28;20037;-72
2023/03/05 01:36:58;;;;;;;107.30;39.23;;;3.70;99.90;;;;;;5013570;28;20040;-72
2023/03/05 01:39:23;;;;;;;96.00;38.55;;;3.80;99.90;;;;;;5031363;28;20021;-72
2023/03/05 01:41:49;;;;;;;95.70;37.93;;;3.80;99.90;;;;;;5031373;28;20060;-71
2023/03/05 01:44:35;;;;;;;100.57;39.83;;;3.80;99.90;;;;;;5030636;28;20064;-66
2023/03/05 01:47:00;;;;;;;103.85;40.78;;;3.70;99.90;;;;;;5030523;28;20056;-68
2023/03/05 01:49:32;;;;;;;93.80;37.43;;;3.60;99.90;;;;;;5031245;28;20029;-67
2023/03/05 01:52:16;;;;;;;104.28;39.08;;;3.60;99.90;;;;;;5031122;28;20037;-67
2023/03/05 01:54:57;;;;;;;103.03;40.58;;;3.50;99.90;;;;;;5031379;28;20108;-70
2023/03/05 01:57:29;;;;;;;100.55;38.42;;;3.40;99.90;;;;;;5029694;28;20128;-71
2023/03/05 02:00:00;;;;;;;103.63;41.00;;;3.40;99.90;;;;;;5029247;28;20452;-71
2023/03/05 02:02:26;;;;;;;103.13;39.05;;;3.30;99.90;;;;;;5030713;28;20032;-72
2023/03/05 02:04:56;;;;;;;101.10;40.88;;;3.30;99.90;;;;;;5030721;28;20026;-70
2023/03/05 02:07:23;;;;;;;97.03;38.25;;;3.20;99.90;;;;;;5030865;28;20409;-71
2023/03/05 02:09:49;;;;;;;103.75;39.97;;;3.20;99.90;;;;;;5030101;28;20029;-71
2023/03/05 02:12:15;;;;;;;94.40;38.13;;;3.20;99.90;;;;;;5030358;28;20083;-70
2023/03/05 02:14:44;;;;;;;86.60;36.60;;;3.10;99.90;;;;;;5030550;28;20122;-73
2023/03/05 02:17:10;;;;;;;89.65;37.80;;;3.10;99.90;;;;;;5030591;28;20111;-71
2023/03/05 02:19:55;;;;;;;98.55;38.05;;;3.00;99.90;;;;;;5029987;28;20056;-71
2023/03/05 02:22:23;;;;;;;95.25;38.55;;;2.90;99.90;;;;;;5030592;28;20070;-72
2023/03/05 02:24:49;;;;;;;101.43;40.45;;;2.90;99.90;;;;;;5030476;28;20449;-68
2023/03/05 02:27:15;;;;;;;96.38;36.90;;;2.90;99.90;;;;;;5029129;28;20041;-72
2023/03/05 02:29:43;;;;;;;95.03;38.45;;;2.90;99.90;;;;;;5030001;28;20044;-72
2023/03/05 02:32:09;;;;;;;89.30;37.45;;;2.80;99.90;;;;;;5028642;28;20034;-72
2023/03/05 02:34:36;;;;;;;94.07;38.58;;;2.80;99.90;;;;;;5030079;28;20030;-72
2023/03/05 02:37:03;;;;;;;;;;;2.70;99.90;;;;;;5030160;28;20060;-73
2023/03/05 02:39:32;;;;;;;100.22;36.38;;;2.80;99.90;;;;;;5029706;28;19963;-68
2023/03/05 02:41:57;;;;;;;93.43;37.83;;;2.70;99.90;;;;;;5028280;28;20528;-72
2023/03/05 02:44:23;;;;;;;96.13;36.10;;;2.60;99.90;;;;;;5029329;28;20022;-71
2023/03/05 02:46:49;;;;;;;91.03;36.70;;;2.60;99.90;;;;;;5028339;28;20311;-71
2023/03/05 02:49:14;;;;;;;89.87;37.17;;;2.60;99.90;;;;;;5026967;28;20280;-72
2023/03/05 02:51:40;;;;;;;90.73;36.33;;;2.50;99.90;;;;;;5026556;28;20402;-73
2023/03/05 02:54:06;;;;;;;97.70;37.97;;;2.50;99.90;;;;;;5029746;28;20469;-72
2023/03/05 02:56:31;;;;;;;106.40;37.63;;;2.50;99.90;;;;;;5029512;28;20030;-72
2023/03/05 02:58:57;;;;;;;86.73;38.20;;;2.50;99.90;;;;;;5029032;28;20086;-71
2023/03/05 03:01:23;;;;;;;96.63;37.17;;;2.50;99.90;;;;;;5029570;28;20476;-65
2023/03/05 03:03:48;;;;;;;86.33;36.17;;;2.40;99.90;;;;;;5029549;28;20033;-69
2023/03/05 03:06:14;;;;;;;88.53;39.27;;;2.40;99.90;;;;;;5029858;28;20818;-67
2023/03/05 03:08:39;;;;;;;89.17;38.43;;;2.40;99.90;;;;;;5029642;28;20095;-70
2023/03/05 03:11:07;;;;;;;90.80;37.27;;;2.40;99.90;;;;;;5029368;28;20029;-64
2023/03/05 03:13:34;;;;;;;94.55;37.05;;;2.30;99.90;;;;;;5028845;28;20413;-72
2023/03/05 03:16:08;;;;;;;91.32;36.00;;;2.40;99.90;;;;;;5029041;28;20075;-70
2023/03/05 03:18:34;;;;;;;92.00;37.80;;;2.40;99.90;;;;;;5020765;28;20045;-73
2023/03/05 03:21:01;;;;;;;99.03;35.47;;;2.30;99.90;;;;;;5011991;28;20034;-71
2023/03/05 03:23:27;;;;;;;86.53;35.50;;;2.30;99.90;;;;;;5009940;28;20028;-71
2023/03/05 03:25:52;;;;;;;84.35;34.83;;;2.20;99.90;;;;;;5009103;28;20472;-68
2023/03/05 03:28:18;;;;;;;83.63;34.10;;;2.20;99.90;;;;;;5009039;28;20048;-71
2023/03/05 03:30:43;;;;;;;90.05;35.22;;;2.10;99.90;;;;;;5009282;28;20033;-72
2023/03/05 03:33:09;;;;;;;87.97;35.57;;;2.20;99.90;;;;;;5009183;28;20066;-71
2023/03/05 03:35:34;;;;;;;83.13;35.60;;;2.10;99.90;;;;;;5009308;28;20038;-72
2023/03/05 03:38:03;;;;;;;78.97;33.07;;;2.10;99.90;;;;;;5013204;28;20033;-69
2023/03/05 03:40:29;;;;;;;83.78;33.92;;;2.10;99.90;;;;;;5016349;28;20062;-68
2023/03/05 03:42:54;;;;;;;86.70;34.63;;;2.10;99.90;;;;;;5009153;28;20060;-71
2023/03/05 03:45:21;;;;;;;83.13;32.87;;;2.00;99.90;;;;;;5009743;28;20073;-65
2023/03/05 03:47:50;;;;;;;76.40;33.17;;;2.00;99.90;;;;;;5009732;28;20052;-69
2023/03/05 03:50:17;;;;;;;87.20;34.15;;;2.00;99.90;;;;;;5009575;28;20030;-69
2023/03/05 03:52:43;;;;;;;80.15;34.30;;;2.10;99.90;;;;;;5007803;28;20422;-71
2023/03/05 03:55:09;;;;;;;81.13;34.10;;;2.10;99.90;;;;;;5008657;28;20038;-71
2023/03/05 03:57:35;;;;;;;80.72;33.03;;;2.00;99.90;;;;;;5007601;28;20124;-71
2023/03/05 04:00:05;;;;;;;76.15;33.20;;;2.00;99.90;;;;;;5008068;28;20044;-72
2023/03/05 04:02:31;;;;;;;78.88;32.30;;;2.10;99.90;;;;;;5008211;28;20037;-72
2023/03/05 04:04:56;;;;;;;77.07;31.70;;;2.00;99.90;;;;;;5007931;28;20029;-71
2023/03/05 04:07:22;;;;;;;77.93;31.80;;;2.00;99.90;;;;;;5007731;28;20308;-69
2023/03/05 04:09:48;;;;;;;76.77;30.30;;;2.00;99.90;;;;;;5008485;28;20028;-70
2023/03/05 04:12:16;;;;;;;78.30;30.38;;;2.00;99.90;;;;;;5008391;28;20037;-67
2023/03/05 04:14:43;;;;;;;73.80;32.35;;;2.00;99.90;;;;;;5008190;28;20049;-72
2023/03/05 04:17:10;;;;;;;75.43;32.17;;;2.00;99.90;;;;;;5008080;28;20490;-72
2023/03/05 04:19:36;;;;;;;73.45;31.60;;;1.90;99.90;;;;;;5007934;28;20065;-71
2023/03/05 04:22:01;;;;;;;68.63;31.20;;;2.00;99.90;;;;;;5008139;28;20069;-70
2023/03/05 04:24:27;;;;;;;75.43;30.33;;;2.00;99.90;;;;;;5007912;28;20030;-68
2023/03/05 04:26:52;;;;;;;78.00;31.20;;;1.90;99.90;;;;;;5007880;28;20026;-71
2023/03/05 04:29:18;;;;;;;68.20;31.13;;;2.00;99.90;;;;;;5008792;28;20037;-68
2023/03/05 04:31:44;;;;;;;71.65;31.35;;;2.00;99.90;;;;;;5015394;28;20095;-72
2023/03/05 04:34:10;;;;;;;72.10;30.47;;;2.00;99.90;;;;;;5017099;28;20034;-72
2023/03/05 04:36:35;;;;;;;70.27;29.07;;;2.00;99.90;;;;;;5006688;28;20034;-72
2023/03/05 04:39:02;;;;;;;73.03;30.35;;;2.00;99.90;;;;;;5017884;28;20021;-71
2023/03/05 04:41:28;;;;;;;70.63;32.17;;;2.00;99.90;;;;;;5027676;28;20043;-68
2023/03/05 04:43:53;;;;;;;72.97;28.73;;;2.10;99.90;;;;;;5027404;28;20030;-71
2023/03/05 04:46:19;;;;;;;65.47;28.23;;;2.20;99.90;;;;;;5027863;28;20042;-71
2023/03/05 04:48:44;;;;;;;71.13;29.53;;;2.30;99.90;;;;;;5027751;28;20033;-72
2023/03/05 04:51:10;;;;;;;74.43;30.33;;;2.30;99.90;;;;;;5027800;28;20096;-71
2023/03/05 04:53:35;;;;;;;75.40;27.73;;;2.30;99.90;;;;;;5026391;28;20027;-72
2023/03/05 04:56:01;;;;;;;76.17;28.30;;;2.30;99.90;;;;;;5027558;28;20505;-72
2023/03/05 04:58:27;;;;;;;63.17;29.30;;;2.20;99.90;;;;;;5026042;28;20072;-71
2023/03/05 05:00:53;;;;;;;70.45;28.52;;;2.30;99.90;;;;;;5027027;28;20276;-71
2023/03/05 05:03:18;;;;;;;65.83;28.53;;;2.30;99.90;;;;;;5027943;28;20132;-71
2023/03/05 05:05:44;;;;;;;79.30;30.33;;;2.30;99.90;;;;;;5027239;28;20044;-72
2023/03/05 05:08:10;;;;;;;71.43;28.40;;;2.20;99.90;;;;;;5022274;28;20041;-74
2023/03/05 05:10:38;;;;;;;61.70;26.73;;;2.30;99.90;;;;;;5024390;28;20045;-73
2023/03/05 05:13:05;;;;;;;73.50;28.08;;;2.10;99.90;;;;;;5025284;28;20041;-73
2023/03/05 05:15:31;;;;;;;58.85;26.38;;;2.10;99.90;;;;;;5026309;28;20045;-74
2023/03/05 05:17:56;;;;;;;65.65;27.67;;;2.20;99.90;;;;;;5025294;28;20493;-70
2023/03/05 05:20:22;;;;;;;69.18;30.33;;;2.20;99.90;;;;;;5026235;28;20038;-69
2023/03/05 05:22:48;;;;;;;69.63;28.10;;;2.20;99.90;;;;;;5026346;28;20084;-73
2023/03/05 05:25:13;;;;;;;66.93;26.23;;;2.10;99.90;;;;;;5025971;28;20029;-70
2023/03/05 05:27:39;;;;;;;72.97;28.23;;;2.20;99.90;;;;;;5029712;28;20311;-70
2023/03/05 05:30:06;;;;;;;59.42;27.63;;;2.10;99.90;;;;;;5032600;28;20123;-70
2023/03/05 05:32:32;;;;;;;72.22;28.05;;;2.00;99.90;;;;;;5030326;28;20061;-71
2023/03/05 05:34:58;;;;;;;63.20;26.20;;;2.20;99.90;;;;;;5026605;28;20064;-71
2023/03/05 05:37:25;;;;;;;63.67;25.40;;;2.10;99.90;;;;;;5026826;28;20446;-70
2023/03/05 05:39:51;;;;;;;70.47;25.02;;;2.10;99.90;;;;;;5030326;28;20096;-71
2023/03/05 05:42:18;;;;;;;64.22;27.73;;;2.00;99.90;;;;;;5029893;28;20436;-72
2023/03/05 05:44:45;;;;;;;57.80;24.88;;;2.00;99.90;;;;;;5027393;28;20401;-71
2023/03/05 05:47:11;;;;;;;68.97;25.63;;;2.00;99.90;;;;;;5025648;28;20456;-70
2023/03/05 05:49:37;;;;;;;66.82;26.00;;;2.00;99.90;;;;;;5028373;28;20013;-71
2023/03/05 05:52:03;;;;;;;57.45;24.92;;;2.00;99.90;;;;;;5028926;28;20029;-70
2023/03/05 05:54:28;;;;;;;65.80;26.05;;;2.00;99.90;;;;;;5029415;28;20025;-69
2023/03/05 05:56:54;;;;;;;73.53;27.40;;;2.00;99.90;;;;;;5026648;28;20037;-72
2023/03/05 05:59:19;;;;;;;63.57;25.67;;;2.10;99.90;;;;;;5029371;28;20555;-70
2023/03/05 06:01:45;;;;;;;61.57;24.57;;;2.10;99.90;;;;;;5027786;28;20029;-68
2023/03/05 06:04:10;;;;;;;63.53;26.87;;;2.10;99.90;;;;;;5027982;28;20071;-69
2023/03/05 06:06:36;;;;;;;64.50;26.57;;;2.10;99.90;;;;;;5028915;28;20482;-69
2023/03/05 06:09:02;;;;;;;65.00;25.42;;;2.10;99.90;;;;;;5027126;28;20087;-68
2023/03/05 06:11:28;;;;;;;60.17;25.70;;;2.10;99.90;;;;;;5026200;28;20026;-72
2023/03/05 06:13:54;;;;;;;63.30;25.52;;;2.10;99.90;;;;;;5025938;28;20029;-72
2023/03/05 06:16:22;;;;;;;59.42;26.42;;;2.10;99.90;;;;;;5026658;28;20044;-70
2023/03/05 06:18:49;;;;;;;73.85;28.13;;;2.10;99.90;;;;;;5026912;28;20034;-70
2023/03/05 06:21:17;;;;;;;65.35;25.05;;;2.00;99.90;;;;;;5029056;28;20026;-71
2023/03/05 06:23:43;;;;;;;58.72;24.67;;;2.10;99.90;;;;;;5020605;28;20060;-71
2023/03/05 06:26:11;;;;;;;69.32;26.48;;;2.00;99.90;;;;;;5029808;28;20026;-71
2023/03/05 06:28:37;;;;;;;59.17;25.38;;;2.00;99.90;;;;;;5030839;28;20029;-72
2023/03/05 06:31:07;;;;;;;66.23;24.33;;;2.00;99.90;;;;;;5029253;28;20452;-70
2023/03/05 06:33:33;;;;;;;60.63;25.13;;;2.00;99.90;;;;;;5030880;28;20075;-72
2023/03/05 06:36:01;;;;;;;66.20;25.75;;;1.90;99.90;;;;;;5030103;28;20037;-71
2023/03/05 06:38:27;;;;;;;59.85;23.95;;;1.90;99.90;;;;;;5028216;28;20497;-68
2023/03/05 06:40:54;;;;;;;57.78;25.25;;;1.90;99.90;;;;;;5035438;28;20472;-71
2023/03/05 06:43:19;;;;;;;61.87;24.97;;;1.80;99.90;;;;;;5030632;28;20029;-71
2023/03/05 06:45:45;;;;;;;65.70;27.60;;;1.80;99.90;;;;;;5028738;28;20052;-71
2023/03/05 06:48:11;;;;;;;66.20;26.53;;;1.90;99.90;;;;;;5029643;28;20409;-71
2023/03/05 06:50:37;;;;;;;66.25;26.02;;;2.00;99.90;;;;;;5031003;28;20731;-67
2023/03/05 06:53:03;;;;;;;65.60;26.55;;;2.00;99.90;;;;;;5036204;28;20044;-71
2023/03/05 06:55:29;;;;;;;72.17;24.33;;;2.00;99.90;;;;;;5030061;28;20033;-71
2023/03/05 06:57:55;;;;;;;61.92;24.60;;;2.10;99.90;;;;;;5029608;28;20370;-72
2023/03/05 07:00:21;;;;;;;70.35;26.40;;;2.10;99.90;;;;;;5029236;28;20117;-69
2023/03/05 07:02:47;;;;;;;62.08;25.42;;;2.20;99.90;;;;;;5029337;28;20472;-73
2023/03/05 07:05:12;;;;;;;63.13;25.30;;;2.30;99.90;;;;;;5031047;28;20125;-71
2023/03/05 07:07:38;;;;;;;59.42;24.95;;;2.20;99.90;;;;;;5027587;28;20045;-71
2023/03/05 07:10:06;;;;;;;61.30;24.53;;;2.30;99.90;;;;;;5027981;28;20026;-72
2023/03/05 07:12:33;;;;;;;55.47;23.85;;;2.20;99.90;;;;;;5030575;28;20041;-70
2023/03/05 07:14:59;;;;;;;58.08;24.30;;;2.20;99.90;;;;;;5028258;28;20422;-71
2023/03/05 07:17:25;;;;;;;;;;;2.20;99.90;;;;;;5032023;28;20086;-70
2023/03/05 07:19:51;;;;;;;57.63;23.50;;;2.40;99.90;;;;;;5029326;28;19909;-71
2023/03/05 07:22:16;;;;;;;64.03;25.13;;;2.40;99.90;;;;;;5029340;28;20103;-69
2023/03/05 07:24:42;;;;;;;63.93;24.43;;;2.50;99.90;;;;;;5026113;28;20033;-70
2023/03/05 07:27:07;;;;;;;58.90;25.53;;;2.60;99.90;;;;;;5024554;28;20044;-69
2023/03/05 07:29:33;;;;;;;57.70;24.33;;;2.70;99.90;;;;;;5027859;28;20072;-69
2023/03/05 07:31:59;;;;;;;58.40;24.70;;;2.70;99.90;;;;;;5026160;28;20493;-71
2023/03/05 07:34:24;;;;;;;62.78;26.17;;;2.60;99.90;;;;;;5027122;28;20032;-71
2023/03/05 07:36:51;;;;;;;66.60;25.10;;;2.70;99.90;;;;;;5029285;28;20042;-67
2023/03/05 07:39:19;;;;;;;67.22;25.38;;;2.70;99.90;;;;;;5035155;28;20039;-69
2023/03/05 07:41:46;;;;;;;57.92;24.90;;;2.70;99.90;;;;;;5032219;28;20029;-68
2023/03/05 07:44:12;;;;;;;57.05;23.80;;;3.00;99.90;;;;;;5029184;28;20036;-69
2023/03/05 07:46:38;;;;;;;72.55;27.38;;;2.90;99.90;;;;;;5029705;28;20041;-67
2023/03/05 07:49:03;;;;;;;59.47;24.70;;;3.00;99.90;;;;;;5032260;28;20512;-70
2023/03/05 07:51:29;;;;;;;60.60;24.57;;;3.00;99.90;;;;;;5033012;28;20039;-70
2023/03/05 07:53:57;;;;;;;56.50;24.95;;;3.00;99.90;;;;;;5032088;28;20295;-69
2023/03/05 07:56:30;;;;;;;57.15;25.77;;;2.90;99.90;;;;;;5031906;28;20044;-73
2023/03/05 07:58:58;;;;;;;62.15;26.60;;;3.00;99.90;;;;;;5030427;28;20477;-69
2023/03/05 08:01:24;;;;;;;59.90;24.10;;;2.90;99.90;;;;;;5030569;28;20107;-76
2023/03/05 08:03:49;;;;;;;65.20;25.63;;;3.10;99.90;;;;;;5026355;28;20029;-69
2023/03/05 08:06:18;;;;;;;62.10;25.17;;;3.30;99.90;;;;;;5028073;28;20871;-74
2023/03/05 08:08:43;;;;;;;63.17;26.52;;;3.40;99.90;;;;;;5026074;28;20029;-71
2023/03/05 08:11:11;;;;;;;57.87;24.70;;;3.50;99.90;;;;;;5029586;28;20108;-70
2023/03/05 08:13:38;;;;;;;59.22;25.25;;;3.50;99.90;;;;;;5027596;28;20030;-71
2023/03/05 08:16:08;;;;;;;55.35;24.60;;;3.40;99.90;;;;;;5029166;28;20022;-68
2023/03/05 08:18:34;;;;;;;57.97;22.90;;;3.50;99.90;;;;;;5027201;28;20029;-72
2023/03/05 08:21:00;;;;;;;57.65;26.10;;;3.60;99.90;;;;;;5030252;28;20103;-67
2023/03/05 08:23:26;;;;;;;62.30;26.48;;;3.70;99.90;;;;;;5028522;28;20060;-74
2023/03/05 08:25:52;;;;;;;61.35;23.95;;;3.60;99.90;;;;;;5027418;28;20033;-72
2023/03/05 08:28:18;;;;;;;64.25;26.38;;;3.70;99.90;;;;;;5030271;28;20041;-73
2023/03/05 08:30:46;;;;;;;59.80;25.73;;;3.80;99.90;;;;;;5027571;28;20607;-74
2023/03/05 08:33:13;;;;;;;58.25;25.73;;;4.00;99.90;;;;;;5031845;28;20041;-71
2023/03/05 08:35:39;;;;;;;62.70;25.98;;;4.10;99.90;;;;;;5032654;28;20413;-73
2023/03/05 08:38:04;;;;;;;63.40;26.05;;;4.00;99.90;;;;;;5028775;28;20032;-73
2023/03/05 08:40:30;;;;;;;64.15;28.13;;;3.90;99.90;;;;;;5030974;28;20241;-69
2023/03/05 08:42:58;;;;;;;56.10;25.47;;;4.30;99.90;;;;;;5028051;28;20071;-71
2023/03/05 08:45:26;;;;;;;66.20;27.63;;;4.20;99.90;;;;;;5027306;28;20040;-73
2023/03/05 08:47:52;;;;;;;58.67;25.50;;;4.50;99.90;;;;;;5029799;28;20147;-69
2023/03/05 08:50:18;;;;;;;61.38;26.83;;;4.50;99.60;;;;;;5023286;28;20121;-72
2023/03/05 08:52:43;;;;;;;52.93;25.87;;;4.40;99.90;;;;;;5025809;28;20116;-69
2023/03/05 08:55:11;;;;;;;59.57;27.20;;;4.40;99.90;;;;;;5023483;28;20036;-70
2023/03/05 08:57:37;;;;;;;60.75;25.55;;;4.30;99.90;;;;;;5022235;28;20057;-70
2023/03/05 09:00:03;;;;;;;60.72;26.17;;;4.40;99.50;;;;;;5024858;28;20075;-72
2023/03/05 09:02:28;;;;;;;61.67;26.85;;;4.50;99.90;;;;;;5020642;28;20030;-70
2023/03/05 09:04:54;;;;;;;66.50;26.47;;;4.50;99.90;;;;;;5028955;28;20033;-73
2023/03/05 09:07:20;;;;;;;67.70;28.33;;;4.50;99.40;;;;;;5026894;28;20059;-77
2023/03/05 09:09:45;;;;;;;61.73;28.03;;;4.60;99.70;;;;;;5026596;28;20294;-70
2023/03/05 09:12:12;;;;;;;65.37;28.57;;;4.80;99.70;;;;;;5031699;28;20025;-70
2023/03/05 09:14:39;;;;;;;62.15;26.13;;;4.80;99.30;;;;;;5026283;28;20040;-73
2023/03/05 09:17:05;;;;;;;61.88;26.30;;;4.80;99.30;;;;;;5025576;28;20033;-72
2023/03/05 09:19:31;;;;;;;74.75;28.73;;;4.70;99.30;;;;;;5028037;28;20025;-72
2023/03/05 09:21:57;;;;;;;68.60;27.48;;;4.80;99.20;;;;;;5028175;28;20037;-67
2023/03/05 09:24:22;;;;;;;67.35;29.05;;;4.80;99.10;;;;;;5023936;28;20033;-69
2023/03/05 09:26:48;;;;;;;64.75;26.98;;;4.80;99.50;;;;;;5026709;28;20033;-74
2023/03/05 09:29:14;;;;;;;65.22;27.10;;;5.00;99.40;;;;;;5027242;28;20041;-69
2023/03/05 09:31:40;;;;;;;72.47;28.93;;;4.90;98.90;;;;;;5022690;28;20156;-71
2023/03/05 09:34:07;;;;;;;63.13;27.80;;;5.10;99.40;;;;;;5030961;28;20025;-72
2023/03/05 09:36:32;;;;;;;68.95;28.38;;;5.20;98.70;;;;;;5027554;28;20148;-70
2023/03/05 09:38:58;;;;;;;71.90;28.53;;;5.30;98.70;;;;;;5027669;28;20560;-70
2023/03/05 09:41:59;;;;;;;72.67;28.87;;;5.20;98.70;;;;;;5026547;28;20052;-69
2023/03/05 09:44:50;;;;;;;66.72;27.35;;;5.70;98.30;;;;;;4994928;28;20030;-73
2023/03/05 09:47:55;;;;;;;61.90;28.67;;;5.90;97.60;;;;;;5022734;28;20156;-67
2023/03/05 09:50:49;;;;;;;64.50;28.63;;;6.30;97.50;;;;;;5016777;28;20064;-68
2023/03/05 09:53:56;;;;;;;62.08;28.02;;;6.30;96.70;;;;;;5026522;28;20056;-72
2023/03/05 09:56:26;;;;;;;71.38;29.10;;;6.00;97.20;;;;;;5027071;28;20065;-70
2023/03/05 09:58:58;;;;;;;68.97;29.95;;;6.20;97.30;;;;;;5031973;28;20033;-69
2023/03/05 10:01:41;;;;;;;64.07;28.08;;;6.50;97.00;;;;;;5032928;28;20030;-71
2023/03/05 10:04:10;;;;;;;66.85;29.67;;;6.70;97.20;;;;;;5022140;28;20041;-68
2023/03/05 10:06:51;;;;;;;66.20;28.92;;;6.70;96.10;;;;;;5026376;28;20033;-71
2023/03/05 10:09:24;;;;;;;62.13;28.35;;;6.50;96.20;;;;;;5025786;28;20413;-74
2023/03/05 10:11:52;;;;;;;81.97;32.25;;;6.80;96.20;;;;;;5030602;28;20064;-69
2023/03/05 10:14:27;;;;;;;67.95;30.73;;;6.60;95.80;;;;;;5031736;28;20037;-70
2023/03/05 10:17:17;;;;;;;70.90;31.27;;;6.90;96.70;;;;;;5031389;28;20025;-76
2023/03/05 10:20:32;;;;;;;68.03;29.65;;;7.10;95.60;;;;;;5030056;28;20040;-69
2023/03/05 10:23:09;;;;;;;80.05;33.17;;;7.10;95.00;;;;;;4990142;28;20069;-69
2023/03/05 10:26:04;;;;;;;73.00;31.20;;;7.40;94.60;;;;;;4991478;28;20480;-68
2023/03/05 10:28:41;;;;;;;69.30;30.67;;;7.60;94.40;;;;;;5020997;28;20420;-66
2023/03/05 10:31:09;;;;;;;66.25;31.58;;;8.30;94.90;;;;;;5031426;28;20401;-67
2023/03/05 10:34:03;;;;;;;70.75;31.52;;;8.00;92.30;;;;;;5033690;28;20041;-68
2023/03/05 10:36:28;;;;;;;70.60;31.90;;;8.40;93.80;;;;;;5030484;28;20036;-70
2023/03/05 10:39:12;;;;;;;78.33;31.27;;;8.40;93.30;;;;;;5030149;28;20029;-70
2023/03/05 10:41:42;;;;;;;69.28;32.97;;;8.60;93.30;;;;;;5028471;28;20580;-69
2023/03/05 10:44:17;;;;;;;64.75;30.02;;;8.30;94.00;;;;;;5030211;28;20029;-69
2023/03/05 10:46:45;;;;;;;74.20;31.30;;;8.10;93.30;;;;;;5027898;28;20044;-71
2023/03/05 10:49:33;;;;;;;81.35;32.88;;;8.50;93.60;;;;;;5030216;28;20538;-70
2023/03/05 10:52:15;;;;;;;74.53;32.95;;;8.40;93.10;;;;;;5027115;28;20034;-69
2023/03/05 10:54:42;;;;;;;73.28;33.70;;;8.20;93.50;;;;;;5031626;28;20409;-71
2023/03/05 10:57:26;;;;;;;79.90;33.80;;;8.50;94.00;;;;;;5028390;28;20110;-73
2023/03/05 10:59:57;;;;;;;72.55;32.97;;;8.60;93.90;;;;;;5032979;28;20025;-73
2023/03/05 11:02:23;;;;;;;70.18;32.60;;;9.00;92.00;;;;;;5031711;28;20034;-72
2023/03/05 11:04:50;;;;;;;74.82;34.97;;;9.40;92.10;;;;;;5032417;28;20033;-73
2023/03/05 11:07:16;;;;;;;79.00;35.05;;;8.50;92.60;;;;;;5030309;28;20514;-71
2023/03/05 11:10:02;;;;;;;73.00;33.33;;;9.10;92.60;;;;;;5022930;28;20554;-73
2023/03/05 11:12:36;;;;;;;75.78;33.67;;;9.20;92.40;;;;;;5029550;28;20022;-74
2023/03/05 11:15:13;;;;;;;76.35;34.90;;;9.20;92.30;;;;;;5031245;28;20705;-67
2023/03/05 11:17:43;;;;;;;73.22;33.83;;;9.40;91.60;;;;;;5031145;28;20047;-72
2023/03/05 11:20:33;;;;;;;81.45;34.85;;;8.80;91.90;;;;;;5030073;28;20037;-72
2023/03/05 11:23:08;;;;;;;78.13;34.33;;;8.90;92.30;;;;;;5031585;28;20409;-73
2023/03/05 11:25:35;;;;;;;77.38;34.80;;;8.80;92.50;;;;;;5030682;28;20409;-71
2023/03/05 11:28:02;;;;;;;71.57;35.50;;;8.90;92.70;;;;;;5027545;28;20091;-70
2023/03/05 11:30:36;;;;;;;78.05;34.50;;;8.60;92.40;;;;;;5024536;28;20074;-70
2023/03/05 11:33:21;;;;;;;69.50;32.65;;;8.30;92.90;;;;;;5056500;28;20057;-71
2023/03/05 11:35:49;;;;;;;72.15;33.38;;;8.10;93.40;;;;;;5021350;28;20044;-73
2023/03/05 11:38:23;;;;;;;78.40;34.60;;;8.10;93.70;;;;;;5029037;28;20050;-72
2023/03/05 11:40:51;;;;;;;76.50;34.50;;;8.50;93.70;;;;;;5029399;28;20099;-72
2023/03/05 11:43:19;;;;;;;79.47;35.75;;;8.60;93.90;;;;;;5026900;28;20219;-68
2023/03/05 11:45:49;;;;;;;81.63;35.45;;;8.70;92.70;;;;;;5029647;28;20029;-70
2023/03/05 11:48:30;;;;;;;74.32;34.90;;;8.80;92.70;;;;;;5014799;28;20033;-70
2023/03/05 11:51:01;;;;;;;78.18;34.42;;;8.40;93.60;;;;;;5028540;28;20025;-69
2023/03/05 11:53:29;;;;;;;78.60;35.53;;;8.60;94.20;;;;;;5026578;28;20033;-69
2023/03/05 11:55:58;;;;;;;71.90;34.38;;;8.60;94.40;;;;;;5028140;28;20018;-70
2023/03/05 11:58:57;;;;;;;72.13;34.47;;;8.70;93.60;;;;;;5026706;28;20030;-70
2023/03/05 12:01:26;;;;;;;75.28;34.25;;;8.90;94.20;;;;;;5023097;28;20026;-68
2023/03/05 12:03:52;;;;;;;71.45;34.60;;;8.80;93.20;;;;;;5025324;28;20684;-68
2023/03/05 12:06:33;;;;;;;74.10;34.10;;;8.70;94.10;;;;;;5025491;28;20041;-70
2023/03/05 12:09:06;;;;;;;82.97;37.67;;;8.70;93.80;;;;;;5025407;28;20037;-67
2023/03/05 12:11:33;;;;;;;81.82;35.25;;;8.50;94.90;;;;;;5025084;28;20498;-70
2023/03/05 12:14:18;;;;;;;;;;;8.60;94.40;;;;;;5029253;28;20112;-65
2023/03/05 12:16:50;;;;;;;80.25;36.47;;;8.70;94.20;;;;;;5023815;28;20663;-65
2023/03/05 12:19:19;;;;;;;69.18;33.88;;;8.60;93.60;;;;;;5025482;28;20190;-67
2023/03/05 12:21:49;;;;;;;74.68;33.30;;;8.70;93.50;;;;;;5022566;28;20402;-66
2023/03/05 12:24:24;;;;;;;78.15;35.47;;;8.60;93.90;;;;;;5020992;28;20022;-68
2023/03/05 12:27:02;;;;;;;83.75;36.67;;;8.90;94.20;;;;;;5025795;28;20064;-68
2023/03/05 12:29:42;;;;;;;74.60;35.47;;;9.00;94.50;;;;;;5028287;28;20583;-67
2023/03/05 12:32:24;;;;;;;72.63;34.80;;;8.90;92.90;;;;;;5025569;28;20099;-67
2023/03/05 12:34:57;;;;;;;72.70;35.25;;;8.80;94.20;;;;;;5010373;28;20573;-68
2023/03/05 12:37:23;;;;;;;75.75;35.70;;;9.00;94.00;;;;;;5027155;28;20484;-66
2023/03/05 12:40:03;;;;;;;81.40;36.90;;;9.00;94.70;;;;;;5028990;28;20068;-67
2023/03/05 12:42:29;;;;;;;80.32;36.70;;;8.60;93.10;;;;;;5025790;28;20037;-69
2023/03/05 12:45:15;;;;;;;83.40;37.63;;;9.00;94.90;;;;;;5023813;28;20670;-70